This is the latest recevied weather packets stored in our database for station/object K7SFN. If no packets are shown the sender has not sent any weather packets the latest 10 day(s).
| Time | Temp. | Humidity | Pressure | Rain* | Wind** | Luminosity | Snow |
|---|---|---|---|---|---|---|---|
| 1777090804 | 10° C | 63% | 1010.5 hPa | 0 mm | - | - | - |
| 1777090504 | 10.56° C | 61% | 1010.5 hPa | 0 mm | - | - | - |
| 1777088704 | 11.11° C | 61% | 1010 hPa | 0 mm | - | - | - |
| 1777088404 | 11.11° C | 60% | 1010 hPa | 0 mm | - | - | - |
| 1777085704 | 11.67° C | 57% | 1009.5 hPa | 0 mm | - | - | - |
| 1777085104 | 12.22° C | 56% | 1009.5 hPa | 0 mm | - | - | - |
| 1777082704 | 14.44° C | 47% | 1009.4 hPa | 0 mm | - | - | - |
| 1777081504 | 13.89° C | 41% | 1009.6 hPa | 0 mm | - | - | - |
| 1777081204 | 13.89° C | 40% | 1009.3 hPa | 0 mm | - | - | - |
| 1777079104 | 13.89° C | 43% | 1009.5 hPa | 0 mm | - | - | - |
| 1777078205 | 13.89° C | 44% | 1009.6 hPa | 0 mm | - | - | - |
| 1777077005 | 13.89° C | 47% | 1009.5 hPa | 0 mm | - | - | - |
| 1777075204 | 15° C | 46% | 1009.4 hPa | 0 mm | - | - | - |
| 1777074304 | 15° C | 49% | 1009.4 hPa | 0 mm | - | - | - |
| 1777073404 | 15° C | 47% | 1009.5 hPa | 0 mm | - | - | - |
| 1777073103 | 15° C | 48% | 1009.5 hPa | 0 mm | - | - | - |
| 1777071304 | 17.78° C | 38% | 1009.9 hPa | 0 mm | - | - | - |
| 1777069804 | 18.89° C | 34% | 1009.6 hPa | 0 mm | - | - | - |
| 1777068904 | 18.89° C | 32% | 1010 hPa | 0 mm | - | - | - |
| 1777068303 | 19.44° C | 32% | 1010.1 hPa | 0 mm | - | - | - |
| 1777065603 | 20° C | 25% | 1010.6 hPa | 0 mm | - | - | - |
| 1777064104 | 18.89° C | 24% | 1010.7 hPa | 0 mm | - | - | - |
| 1777061404 | 18.89° C | 25% | 1010.9 hPa | 0 mm | - | - | - |
| 1777059904 | 17.22° C | 27% | 1011.2 hPa | 0 mm | - | - | - |
| 1777058104 | 17.22° C | 26% | 1011.5 hPa | 0 mm | - | - | - |
* Rain latest hour (hover to see other rain measurements)
** Current wind speed in m/s (hover to see current wind gust speed)